createdAt,value
2018-08-16T00:01:45.621Z,65.06
2018-08-16T00:04:14.299Z,65.44
2018-08-16T00:06:43.076Z,65.70
2018-08-16T00:09:11.811Z,65.99
2018-08-16T00:11:40.586Z,65.84
2018-08-16T00:14:09.345Z,65.94
2018-08-16T00:16:38.073Z,66.31
2018-08-16T00:19:06.928Z,66.15
2018-08-16T00:21:35.611Z,66.25
2018-08-16T00:24:04.304Z,66.17
2018-08-16T00:26:32.963Z,65.81
2018-08-16T00:29:01.648Z,66.11
2018-08-16T00:31:30.338Z,65.83
2018-08-16T00:33:59.076Z,65.94
2018-08-16T00:36:27.799Z,65.81
2018-08-16T00:38:56.467Z,65.94
2018-08-16T00:41:25.337Z,66.07
2018-08-16T00:43:54.080Z,66.11
2018-08-16T00:46:22.808Z,65.76
2018-08-16T00:48:51.615Z,66.15
2018-08-16T00:51:20.272Z,66.39
2018-08-16T00:53:48.991Z,66.66
2018-08-16T00:56:18.865Z,66.86
2018-08-16T00:58:47.475Z,66.98
2018-08-16T01:01:16.122Z,67.16
2018-08-16T01:03:44.768Z,67.50
2018-08-16T01:06:13.472Z,67.64
2018-08-16T01:08:42.132Z,67.86
2018-08-16T01:11:12.278Z,67.97
2018-08-16T01:13:41.195Z,68.27
2018-08-16T01:16:09.870Z,67.64
2018-08-16T01:18:38.561Z,68.15
2018-08-16T01:21:07.379Z,68.25
2018-08-16T01:23:36.077Z,68.19
2018-08-16T01:26:04.854Z,68.07
2018-08-16T01:28:33.595Z,68.69
2018-08-16T01:31:02.303Z,68.44
2018-08-16T01:33:31.254Z,68.60
2018-08-16T01:35:59.975Z,68.61
2018-08-16T01:38:28.696Z,68.70
2018-08-16T01:40:57.427Z,68.80
2018-08-16T01:43:26.143Z,69.06
2018-08-16T01:45:54.865Z,69.19
2018-08-16T01:48:23.575Z,68.83
2018-08-16T01:50:52.220Z,69.25
2018-08-16T01:53:20.918Z,69.38
2018-08-16T01:55:49.603Z,69.45
2018-08-16T01:58:18.346Z,69.25
2018-08-16T02:00:47.048Z,69.83
2018-08-16T02:03:15.838Z,69.62
2018-08-16T02:05:44.595Z,69.40
2018-08-16T02:08:13.300Z,69.50
2018-08-16T02:10:42.144Z,69.63
2018-08-16T02:13:10.911Z,70.16
2018-08-16T02:15:39.615Z,69.93
2018-08-16T02:18:08.398Z,70.01
2018-08-16T02:20:37.174Z,70.71
2018-08-16T02:23:05.946Z,70.42
2018-08-16T02:25:34.648Z,70.33
2018-08-16T02:28:03.403Z,70.71
2018-08-16T02:30:32.122Z,69.55
2018-08-16T02:33:00.911Z,69.95
2018-08-16T02:35:29.601Z,69.38
2018-08-16T02:37:58.317Z,69.94
2018-08-16T02:40:26.988Z,69.33
2018-08-16T02:42:55.704Z,70.10
2018-08-16T02:45:24.417Z,69.82
2018-08-16T02:47:53.118Z,69.77
2018-08-16T02:50:21.835Z,69.71
2018-08-16T02:52:51.046Z,69.67
2018-08-16T02:55:19.810Z,70.35
2018-08-16T02:57:48.511Z,70.03
2018-08-16T03:00:17.318Z,70.19
2018-08-16T03:02:46.050Z,70.12
2018-08-16T03:05:14.793Z,70.04
2018-08-16T03:07:44.113Z,69.84
2018-08-16T03:10:12.850Z,69.55
2018-08-16T03:12:41.675Z,69.79
2018-08-16T03:15:11.200Z,70.20
2018-08-16T03:17:40.280Z,70.00
2018-08-16T03:20:09.290Z,70.32
2018-08-16T03:22:38.027Z,70.00
2018-08-16T03:25:06.854Z,70.31
2018-08-16T03:27:35.499Z,70.49
2018-08-16T03:30:05.486Z,70.37
2018-08-16T03:32:34.428Z,70.24
2018-08-16T03:35:03.156Z,70.41
2018-08-16T03:37:31.849Z,70.74
2018-08-16T03:40:00.507Z,70.62
2018-08-16T03:42:29.237Z,70.76
2018-08-16T03:44:57.950Z,70.62
2018-08-16T03:47:26.580Z,70.63
2018-08-16T03:49:55.254Z,70.60
2018-08-16T03:52:23.959Z,71.12
2018-08-16T03:54:52.603Z,70.04
2018-08-16T03:57:21.228Z,69.93
2018-08-16T03:59:49.898Z,70.35
2018-08-16T04:02:18.562Z,70.03
2018-08-16T04:04:47.228Z,69.81
2018-08-16T04:07:15.926Z,69.65
2018-08-16T04:09:44.661Z,69.51
2018-08-16T04:12:13.409Z,70.04
2018-08-16T04:14:42.167Z,69.99
2018-08-16T04:17:11.167Z,69.55
2018-08-16T04:19:39.925Z,69.96
2018-08-16T04:22:08.659Z,69.12
2018-08-16T04:24:37.338Z,69.21
2018-08-16T04:27:06.129Z,68.33
2018-08-16T04:29:34.889Z,68.60
2018-08-16T04:32:03.638Z,68.89
2018-08-16T04:34:32.271Z,68.92
2018-08-16T04:37:00.935Z,68.10
2018-08-16T04:39:29.609Z,67.15
2018-08-16T04:41:58.355Z,67.10
2018-08-16T04:44:27.053Z,67.46
2018-08-16T04:46:55.707Z,66.83
2018-08-16T04:49:24.412Z,66.96
2018-08-16T04:51:53.086Z,66.66
2018-08-16T04:54:21.782Z,66.11
2018-08-16T04:56:50.474Z,65.72
2018-08-16T04:59:19.134Z,65.49
2018-08-16T05:01:47.847Z,65.94
2018-08-16T05:04:16.524Z,65.45
2018-08-16T05:06:45.315Z,65.64
2018-08-16T05:09:14.021Z,65.61
2018-08-16T05:11:42.814Z,65.93
2018-08-16T05:14:11.944Z,65.23
2018-08-16T05:16:41.139Z,64.70
2018-08-16T05:19:09.792Z,65.18
2018-08-16T05:21:38.559Z,65.28
2018-08-16T05:24:07.277Z,65.27
2018-08-16T05:26:35.929Z,64.62
2018-08-16T05:29:04.761Z,64.67
2018-08-16T05:31:33.455Z,64.24
2018-08-16T05:34:02.159Z,64.14
2018-08-16T05:36:30.878Z,64.56
2018-08-16T05:38:59.579Z,65.09
2018-08-16T05:41:28.286Z,65.31
2018-08-16T05:43:56.971Z,65.42
2018-08-16T05:46:25.668Z,65.60
2018-08-16T05:48:54.479Z,65.72
2018-08-16T05:51:23.170Z,65.97
2018-08-16T05:53:51.863Z,66.01
2018-08-16T05:56:20.609Z,65.85
2018-08-16T05:58:49.251Z,65.72
2018-08-16T06:01:17.987Z,65.21
2018-08-16T06:03:46.679Z,65.32
2018-08-16T06:06:15.403Z,64.49
2018-08-16T06:08:44.046Z,63.38
2018-08-16T06:11:12.778Z,63.53
2018-08-16T06:13:41.499Z,63.14
2018-08-16T06:16:10.268Z,62.99
2018-08-16T06:18:38.963Z,62.44
2018-08-16T06:21:07.735Z,62.01
2018-08-16T06:23:36.451Z,62.01
2018-08-16T06:26:05.226Z,61.73
2018-08-16T06:28:34.179Z,60.33
2018-08-16T06:31:02.934Z,60.61
2018-08-16T06:33:31.803Z,60.70
2018-08-16T06:36:00.626Z,61.49
2018-08-16T06:38:29.458Z,60.89
2018-08-16T06:40:58.208Z,60.72
2018-08-16T06:43:26.975Z,60.67
2018-08-16T06:45:55.749Z,59.91
2018-08-16T06:48:24.464Z,59.61
2018-08-16T06:50:53.263Z,59.39
2018-08-16T06:53:21.971Z,59.12
2018-08-16T06:55:50.725Z,59.09
2018-08-16T06:58:19.482Z,59.36
2018-08-16T07:00:48.200Z,58.66
2018-08-16T07:03:16.927Z,58.44
2018-08-16T07:05:45.682Z,58.03
2018-08-16T07:08:14.469Z,58.43
2018-08-16T07:12:12.851Z,57.01
2018-08-16T07:14:42.175Z,56.12
2018-08-16T07:17:11.738Z,56.39
2018-08-16T07:19:40.448Z,55.84
2018-08-16T07:22:09.284Z,54.63
2018-08-16T07:24:38.043Z,54.37
2018-08-16T07:27:06.785Z,54.29
2018-08-16T07:29:35.496Z,55.50
2018-08-16T07:32:04.358Z,54.88
2018-08-16T07:34:33.141Z,54.68
2018-08-16T07:37:01.815Z,54.88
2018-08-16T07:39:30.538Z,54.96
2018-08-16T07:41:59.472Z,54.36
2018-08-16T07:44:28.131Z,54.60
2018-08-16T07:46:56.790Z,53.45
2018-08-16T07:49:26.412Z,53.10
2018-08-16T07:51:55.167Z,53.81
2018-08-16T07:54:23.863Z,53.55
2018-08-16T07:56:52.531Z,53.32
2018-08-16T07:59:21.212Z,52.10
2018-08-16T08:01:49.948Z,53.54
2018-08-16T08:04:18.626Z,52.51
2018-08-16T08:06:47.400Z,51.20
2018-08-16T08:09:16.201Z,51.92
2018-08-16T08:11:44.959Z,51.65
2018-08-16T08:14:13.693Z,50.84
2018-08-16T08:16:42.433Z,51.68
2018-08-16T08:19:11.103Z,51.43
2018-08-16T08:21:39.811Z,51.95
2018-08-16T08:24:08.509Z,51.07
2018-08-16T08:26:37.256Z,50.79
2018-08-16T08:29:06.059Z,49.86
2018-08-16T08:31:34.826Z,49.53
2018-08-16T08:34:03.546Z,49.41
2018-08-16T08:36:43.407Z,49.25
2018-08-16T08:39:12.427Z,47.90
2018-08-16T08:41:41.322Z,48.70
2018-08-16T08:44:19.987Z,47.81
2018-08-16T08:46:50.072Z,46.59
2018-08-16T08:49:19.135Z,45.94
2018-08-16T08:51:48.522Z,46.92
2018-08-16T08:54:32.618Z,46.67
2018-08-16T08:58:16.270Z,46.34
2018-08-16T09:00:44.972Z,45.64
2018-08-16T09:03:13.656Z,45.31
2018-08-16T09:05:42.338Z,44.37
2018-08-16T09:08:11.062Z,43.16
2018-08-16T09:10:50.121Z,43.47
2018-08-16T09:13:29.905Z,42.79
2018-08-16T09:15:59.907Z,44.06
2018-08-16T09:18:28.606Z,43.82
2018-08-16T09:20:57.934Z,44.51
2018-08-16T09:23:26.718Z,43.61
2018-08-16T09:25:55.380Z,42.71
2018-08-16T09:28:24.364Z,42.01
2018-08-16T09:31:04.136Z,40.94
2018-08-16T09:33:43.979Z,40.50
2018-08-16T09:36:12.783Z,40.74
2018-08-16T09:38:41.475Z,39.62
2018-08-16T09:41:10.232Z,38.97
2018-08-16T09:43:38.847Z,39.54
2018-08-16T09:46:47.160Z,40.80
2018-08-16T09:49:16.174Z,39.14
2018-08-16T09:51:46.200Z,39.98
2018-08-16T09:54:14.959Z,38.02
2018-08-16T09:56:44.439Z,39.19
2018-08-16T09:59:13.257Z,37.83
2018-08-16T10:01:41.968Z,36.31
2018-08-16T10:04:10.970Z,35.96
2018-08-16T10:06:40.744Z,37.41
2018-08-16T10:09:20.101Z,35.97
2018-08-16T10:11:49.067Z,35.10
2018-08-16T10:14:18.075Z,35.63
2018-08-16T10:16:46.789Z,36.32
2018-08-16T10:19:15.550Z,36.71
2018-08-16T10:21:44.376Z,37.57
2018-08-16T10:24:13.188Z,36.58
2018-08-16T10:26:42.201Z,37.03
2018-08-16T10:29:11.363Z,36.90
2018-08-16T10:31:40.240Z,38.80
2018-08-16T10:34:08.920Z,36.33
2018-08-16T10:36:37.670Z,35.05
2018-08-16T10:39:09.397Z,36.56
2018-08-16T10:41:38.170Z,38.04
2018-08-16T10:44:06.991Z,35.54
2018-08-16T10:46:35.713Z,34.49
2018-08-16T10:49:04.525Z,32.35
2018-08-16T10:51:33.335Z,31.92
2018-08-16T10:54:02.062Z,30.86
2018-08-16T10:56:30.778Z,30.32
2018-08-16T10:58:59.528Z,29.62
2018-08-16T11:01:28.626Z,29.54
2018-08-16T11:03:57.283Z,30.98
2018-08-16T11:06:25.970Z,31.14
2018-08-16T11:08:54.754Z,28.98
2018-08-16T11:11:23.422Z,29.75
2018-08-16T11:13:52.111Z,30.70
2018-08-16T11:16:20.771Z,31.66
2018-08-16T11:18:49.485Z,31.04
2018-08-16T11:21:18.199Z,33.14
2018-08-16T11:23:46.867Z,32.01
2018-08-16T11:26:15.538Z,31.96
2018-08-16T11:28:44.315Z,33.32
2018-08-16T11:31:13.126Z,31.74
2018-08-16T11:33:41.827Z,32.14
2018-08-16T11:36:10.552Z,32.43
2018-08-16T11:38:39.183Z,32.36
2018-08-16T11:41:07.858Z,33.32
2018-08-16T11:43:36.511Z,34.21
2018-08-16T11:46:05.165Z,32.62
2018-08-16T11:48:33.883Z,32.86
2018-08-16T11:51:02.614Z,31.81
2018-08-16T11:53:31.340Z,32.88
2018-08-16T11:56:00.020Z,33.18
2018-08-16T11:58:28.787Z,33.97
2018-08-16T12:00:57.542Z,33.46
2018-08-16T12:03:26.252Z,32.07
2018-08-16T12:05:55.111Z,30.67
2018-08-16T12:08:23.889Z,31.18
2018-08-16T12:10:52.562Z,30.72
2018-08-16T12:13:21.568Z,31.83
2018-08-16T12:15:50.231Z,33.20
2018-08-16T12:18:18.999Z,33.22
2018-08-16T12:20:47.674Z,34.68
2018-08-16T12:23:16.347Z,34.73
2018-08-16T12:25:45.069Z,35.27
2018-08-16T12:28:13.750Z,34.59
2018-08-16T12:30:42.506Z,33.30
2018-08-16T12:33:11.753Z,32.92
2018-08-16T12:35:40.458Z,33.52
2018-08-16T12:38:09.240Z,31.82
2018-08-16T12:40:38.019Z,31.26
2018-08-16T12:43:06.659Z,31.28
2018-08-16T12:45:35.380Z,30.37
2018-08-16T12:48:04.118Z,31.87
2018-08-16T12:50:32.778Z,32.55
2018-08-16T12:53:01.396Z,31.19
2018-08-16T12:55:30.044Z,32.18
2018-08-16T12:57:58.692Z,32.03
2018-08-16T13:01:17.668Z,32.51
2018-08-16T13:03:46.412Z,32.94
2018-08-16T13:06:15.089Z,32.43
2018-08-16T13:08:43.812Z,32.02
2018-08-16T13:11:12.571Z,30.97
2018-08-16T13:13:41.319Z,31.07
2018-08-16T13:16:10.122Z,31.49
2018-08-16T13:18:39.120Z,31.74
2018-08-16T13:21:08.141Z,33.17
2018-08-16T13:23:37.033Z,34.00
2018-08-16T13:26:06.185Z,34.53
2018-08-16T13:28:34.929Z,34.95
2018-08-16T13:31:03.799Z,34.46
2018-08-16T13:33:32.649Z,35.02
2018-08-16T13:36:01.347Z,35.10
2018-08-16T13:38:30.290Z,35.29
2018-08-16T13:40:59.103Z,35.75
2018-08-16T13:43:27.798Z,35.15
2018-08-16T13:45:56.563Z,36.29
2018-08-16T13:48:25.334Z,35.25
2018-08-16T13:50:53.964Z,34.20
2018-08-16T13:53:22.872Z,34.03
2018-08-16T13:55:51.646Z,32.81
2018-08-16T13:58:20.392Z,32.75
2018-08-16T14:00:49.135Z,32.72
2018-08-16T14:03:17.871Z,30.97
2018-08-16T14:05:46.570Z,32.81
2018-08-16T14:08:15.673Z,32.83
2018-08-16T14:10:46.692Z,33.40
2018-08-16T14:13:15.338Z,33.51
2018-08-16T14:15:44.102Z,33.76
2018-08-16T14:18:12.987Z,34.15
2018-08-16T14:20:42.051Z,35.13
2018-08-16T14:23:10.763Z,34.11
2018-08-16T14:25:39.463Z,33.94
2018-08-16T14:28:08.785Z,33.40
2018-08-16T14:30:37.636Z,35.02
2018-08-16T14:33:06.338Z,34.32
2018-08-16T14:35:35.339Z,35.26
2018-08-16T14:38:04.066Z,36.35
2018-08-16T14:40:32.736Z,36.85
2018-08-16T14:43:01.483Z,38.26
2018-08-16T14:45:30.286Z,36.86
2018-08-16T14:48:03.074Z,37.48
2018-08-16T14:50:31.768Z,38.07
2018-08-16T14:53:00.608Z,37.94
2018-08-16T14:55:29.324Z,38.75
2018-08-16T14:57:58.034Z,37.60
2018-08-16T15:00:26.918Z,38.89
2018-08-16T15:02:55.828Z,37.87
2018-08-16T15:05:24.581Z,37.56
2018-08-16T15:07:53.240Z,35.60
2018-08-16T15:10:21.899Z,34.83
2018-08-16T15:12:50.594Z,34.11
2018-08-16T15:15:19.366Z,34.88
2018-08-16T15:17:48.071Z,33.03
2018-08-16T15:20:16.732Z,33.06
2018-08-16T15:22:45.512Z,31.82
2018-08-16T15:25:14.205Z,31.77
2018-08-16T15:27:42.872Z,31.77
2018-08-16T15:30:11.656Z,32.18
2018-08-16T15:32:40.414Z,31.49
2018-08-16T15:35:09.180Z,32.14
2018-08-16T15:37:37.962Z,32.15
2018-08-16T15:40:07.155Z,32.25
2018-08-16T15:42:35.841Z,32.55
2018-08-16T15:45:05.171Z,31.79
2018-08-16T15:47:33.831Z,32.36
2018-08-16T15:50:02.602Z,32.46
2018-08-16T15:52:31.256Z,32.17
2018-08-16T15:54:59.991Z,32.50
2018-08-16T15:57:28.747Z,33.41
2018-08-16T15:59:57.681Z,33.19
2018-08-16T16:02:26.290Z,33.08
2018-08-16T16:04:55.006Z,33.12
2018-08-16T16:07:23.742Z,32.40
2018-08-16T16:09:52.769Z,32.93
2018-08-16T16:12:21.559Z,34.02
2018-08-16T16:14:50.169Z,33.71
2018-08-16T16:17:18.844Z,34.35
2018-08-16T16:19:47.616Z,34.55
2018-08-16T16:22:16.258Z,35.37
2018-08-16T16:24:45.021Z,36.19
2018-08-16T16:27:13.686Z,35.09
2018-08-16T16:29:42.374Z,35.38
2018-08-16T16:32:11.159Z,35.49
2018-08-16T16:34:39.845Z,37.19
2018-08-16T16:37:08.633Z,36.66
2018-08-16T16:39:37.452Z,36.19
2018-08-16T16:42:06.454Z,36.11
2018-08-16T16:44:35.254Z,36.40
2018-08-16T16:47:03.978Z,36.53
2018-08-16T16:49:32.724Z,37.56
2018-08-16T16:52:01.419Z,37.29
2018-08-16T16:54:30.122Z,38.33
2018-08-16T16:56:58.857Z,37.81
2018-08-16T16:59:27.578Z,37.82
2018-08-16T17:01:56.316Z,38.75
2018-08-16T17:04:25.269Z,38.00
2018-08-16T17:06:54.365Z,39.14
2018-08-16T17:09:23.144Z,38.67
2018-08-16T17:15:22.326Z,38.91
2018-08-16T17:17:51.007Z,39.78
2018-08-16T17:20:19.731Z,39.97
2018-08-16T17:22:48.433Z,40.33
2018-08-16T17:25:17.124Z,40.70
2018-08-16T17:27:45.931Z,41.12
2018-08-16T17:30:14.731Z,40.98
2018-08-16T17:32:43.532Z,40.65
2018-08-16T17:35:12.198Z,40.72
2018-08-16T17:37:40.872Z,41.30
2018-08-16T17:40:09.646Z,41.73
2018-08-16T17:42:38.313Z,41.80
2018-08-16T17:45:07.202Z,42.35
2018-08-16T17:47:36.052Z,42.00
2018-08-16T17:50:05.342Z,41.76
2018-08-16T17:52:34.490Z,42.06
2018-08-16T17:55:03.280Z,43.04
2018-08-16T17:57:32.944Z,42.53
2018-08-16T18:00:01.654Z,43.52
2018-08-16T18:02:30.467Z,43.33
2018-08-16T18:04:59.271Z,42.60
2018-08-16T18:07:28.043Z,43.04
2018-08-16T18:09:56.803Z,42.86
2018-08-16T18:12:25.622Z,43.30
2018-08-16T18:14:54.357Z,43.49
2018-08-16T18:17:23.257Z,43.95
2018-08-16T18:19:52.358Z,43.47
2018-08-16T18:22:21.073Z,43.28
2018-08-16T18:24:49.876Z,43.10
2018-08-16T18:27:18.705Z,44.07
2018-08-16T18:29:47.464Z,44.36
2018-08-16T18:32:16.327Z,45.07
2018-08-16T18:34:45.139Z,45.70
2018-08-16T18:37:13.943Z,45.88
2018-08-16T18:39:42.847Z,46.05
2018-08-16T18:42:11.711Z,45.78
2018-08-16T18:44:40.633Z,45.54
2018-08-16T18:47:09.452Z,46.19
2018-08-16T18:49:38.168Z,46.32
2018-08-16T18:52:06.921Z,46.05
2018-08-16T18:54:35.697Z,47.02
2018-08-16T18:57:04.425Z,46.73
2018-08-16T18:59:33.292Z,46.29
2018-08-16T19:02:01.970Z,47.44
2018-08-16T19:04:30.792Z,47.30
2018-08-16T19:06:59.531Z,47.53
2018-08-16T19:09:28.196Z,47.86
2018-08-16T19:11:56.939Z,47.26
2018-08-16T19:14:25.767Z,47.42
2018-08-16T19:16:54.535Z,47.97
2018-08-16T19:19:23.230Z,47.29
2018-08-16T19:21:52.036Z,48.54
2018-08-16T19:24:20.730Z,48.45
2018-08-16T19:26:49.406Z,49.03
2018-08-16T19:29:18.150Z,49.65
2018-08-16T19:31:46.881Z,48.89
2018-08-16T19:34:15.662Z,49.35
2018-08-16T19:36:44.421Z,50.06
2018-08-16T19:39:13.794Z,50.12
2018-08-16T19:41:42.539Z,50.45
2018-08-16T19:44:11.193Z,49.55
2018-08-16T19:46:39.890Z,50.04
2018-08-16T19:49:08.744Z,48.76
2018-08-16T19:51:38.104Z,49.63
2018-08-16T19:54:06.926Z,49.23
2018-08-16T19:56:35.601Z,50.07
2018-08-16T19:59:04.328Z,49.75
2018-08-16T20:01:33.061Z,49.77
2018-08-16T20:04:04.416Z,48.61
2018-08-16T20:06:33.166Z,48.91
2018-08-16T20:09:02.092Z,49.49
2018-08-16T20:11:30.870Z,48.82
2018-08-16T20:13:59.658Z,49.30
2018-08-16T20:16:28.375Z,48.96
2018-08-16T20:18:57.167Z,49.37
2018-08-16T20:21:26.610Z,49.17
2018-08-16T20:23:55.417Z,49.16
2018-08-16T20:26:24.206Z,49.36
2018-08-16T20:28:52.937Z,49.82
2018-08-16T20:31:21.747Z,49.44
2018-08-16T20:33:50.471Z,49.61
2018-08-16T20:36:19.209Z,49.46
2018-08-16T20:38:53.816Z,49.46
2018-08-16T20:41:22.597Z,49.09
2018-08-16T20:43:54.733Z,48.79
2018-08-16T20:46:26.335Z,48.98
2018-08-16T20:48:55.121Z,48.86
2018-08-16T20:51:23.916Z,48.73
2018-08-16T20:53:52.743Z,49.06
2018-08-16T20:56:21.452Z,49.25
2018-08-16T20:58:50.221Z,48.67
2018-08-16T21:01:18.910Z,49.08
2018-08-16T21:03:47.581Z,49.30
2018-08-16T21:06:16.239Z,49.46
2018-08-16T21:08:44.865Z,49.41
2018-08-16T21:11:13.535Z,49.31
2018-08-16T21:13:42.230Z,49.17
2018-08-16T21:16:10.977Z,48.71
2018-08-16T21:18:39.632Z,50.17
2018-08-16T21:21:08.270Z,50.42
2018-08-16T21:23:36.952Z,51.07
2018-08-16T21:26:05.648Z,50.24
2018-08-16T21:28:34.334Z,51.78
2018-08-16T21:31:03.026Z,52.18
2018-08-16T21:33:31.876Z,51.43
2018-08-16T21:36:00.534Z,51.35
2018-08-16T21:38:29.982Z,52.02
2018-08-16T21:40:58.727Z,51.17
2018-08-16T21:43:27.358Z,51.53
2018-08-16T21:45:56.033Z,51.79
2018-08-16T21:48:24.682Z,51.61
2018-08-16T21:50:53.402Z,51.04
2018-08-16T21:53:22.118Z,51.78
2018-08-16T21:55:50.805Z,51.73
2018-08-16T21:58:19.563Z,52.22
2018-08-16T22:00:56.852Z,52.49
2018-08-16T22:03:27.043Z,51.59
2018-08-16T22:05:59.298Z,51.85
2018-08-16T22:08:47.942Z,51.72
2018-08-16T22:11:16.689Z,52.26
2018-08-16T22:13:45.390Z,52.64
2018-08-16T22:16:14.147Z,51.80
2018-08-16T22:18:42.875Z,52.19
2018-08-16T22:21:11.809Z,53.01
2018-08-16T22:23:40.519Z,52.29
2018-08-16T22:26:09.357Z,51.55
2018-08-16T22:28:38.062Z,52.88
2018-08-16T22:31:07.066Z,53.03
2018-08-16T22:33:35.760Z,53.53
2018-08-16T22:36:04.465Z,53.64
2018-08-16T22:38:34.280Z,53.38
2018-08-16T22:41:03.064Z,53.10
2018-08-16T22:43:32.295Z,53.25
2018-08-16T22:46:01.061Z,53.48
2018-08-16T22:48:29.785Z,54.68
2018-08-16T22:50:58.517Z,54.07
2018-08-16T22:53:27.381Z,54.31
2018-08-16T22:55:56.082Z,54.95
2018-08-16T22:58:24.871Z,54.88
2018-08-16T23:00:53.584Z,56.07
2018-08-16T23:03:22.251Z,56.36
2018-08-16T23:05:50.932Z,56.38
2018-08-16T23:08:19.654Z,56.23
2018-08-16T23:10:48.373Z,56.33
2018-08-16T23:13:17.066Z,56.83
2018-08-16T23:15:45.802Z,56.95
2018-08-16T23:18:14.519Z,57.11
2018-08-16T23:20:43.216Z,56.81
2018-08-16T23:23:11.899Z,57.03
2018-08-16T23:25:40.582Z,57.17
2018-08-16T23:28:09.557Z,56.91
2018-08-16T23:30:38.243Z,57.63
2018-08-16T23:33:08.150Z,57.68
2018-08-16T23:35:36.952Z,57.64
2018-08-16T23:38:05.656Z,57.59
2018-08-16T23:40:34.432Z,57.66
2018-08-16T23:43:03.137Z,57.33
2018-08-16T23:45:31.840Z,58.23
2018-08-16T23:48:11.666Z,58.64
2018-08-16T23:50:40.397Z,58.47
2018-08-16T23:53:09.079Z,58.27
2018-08-16T23:55:37.791Z,58.38
2018-08-16T23:58:06.587Z,58.47
